sensor_id;sensor_type;location;lat;lon;timestamp;temperature;humidity
26990;DHT22;14537;47.788;11.858;2023-04-06T00:00:49;-3.00;99.90
26990;DHT22;14537;47.788;11.858;2023-04-06T00:03:14;-3.00;99.90
26990;DHT22;14537;47.788;11.858;2023-04-06T00:05:41;-2.90;99.90
26990;DHT22;14537;47.788;11.858;2023-04-06T00:08:07;-2.90;99.90
26990;DHT22;14537;47.788;11.858;2023-04-06T00:10:32;-3.00;99.90
26990;DHT22;14537;47.788;11.858;2023-04-06T00:12:59;-3.00;99.90
26990;DHT22;14537;47.788;11.858;2023-04-06T00:15:25;-3.00;99.90
26990;DHT22;14537;47.788;11.858;2023-04-06T00:17:51;-3.00;99.90
26990;DHT22;14537;47.788;11.858;2023-04-06T00:20:17;-3.00;99.90
26990;DHT22;14537;47.788;11.858;2023-04-06T00:22:44;-3.00;99.90
26990;DHT22;14537;47.788;11.858;2023-04-06T00:25:10;-3.10;99.90
26990;DHT22;14537;47.788;11.858;2023-04-06T00:27:37;-3.00;99.90
26990;DHT22;14537;47.788;11.858;2023-04-06T00:30:04;-2.90;99.90
26990;DHT22;14537;47.788;11.858;2023-04-06T00:32:30;-3.00;99.90
26990;DHT22;14537;47.788;11.858;2023-04-06T00:34:56;-3.00;99.90
26990;DHT22;14537;47.788;11.858;2023-04-06T00:37:22;-2.90;99.90
26990;DHT22;14537;47.788;11.858;2023-04-06T00:39:47;-3.00;99.90
26990;DHT22;14537;47.788;11.858;2023-04-06T00:42:14;-3.10;99.90
26990;DHT22;14537;47.788;11.858;2023-04-06T00:44:40;-3.30;99.90
26990;DHT22;14537;47.788;11.858;2023-04-06T00:47:07;-3.30;99.90
26990;DHT22;14537;47.788;11.858;2023-04-06T00:49:33;-3.30;99.90
26990;DHT22;14537;47.788;11.858;2023-04-06T00:51:58;-3.40;99.90
26990;DHT22;14537;47.788;11.858;2023-04-06T00:54:24;-3.30;99.90
26990;DHT22;14537;47.788;11.858;2023-04-06T00:56:50;-3.30;99.90
26990;DHT22;14537;47.788;11.858;2023-04-06T00:59:16;-3.30;99.90
26990;DHT22;14537;47.788;11.858;2023-04-06T01:01:41;-3.30;99.90
26990;DHT22;14537;47.788;11.858;2023-04-06T01:04:07;-3.40;99.90
26990;DHT22;14537;47.788;11.858;2023-04-06T01:06:32;-3.40;99.90
26990;DHT22;14537;47.788;11.858;2023-04-06T01:08:58;-3.50;99.90
26990;DHT22;14537;47.788;11.858;2023-04-06T01:11:24;-3.50;99.90
26990;DHT22;14537;47.788;11.858;2023-04-06T01:13:49;-3.50;99.90
26990;DHT22;14537;47.788;11.858;2023-04-06T01:16:15;-3.50;99.90
26990;DHT22;14537;47.788;11.858;2023-04-06T01:18:41;-3.50;99.90
26990;DHT22;14537;47.788;11.858;2023-04-06T01:21:08;-3.50;99.90
26990;DHT22;14537;47.788;11.858;2023-04-06T01:23:34;-3.50;99.90
26990;DHT22;14537;47.788;11.858;2023-04-06T01:26:00;-3.60;99.90
26990;DHT22;14537;47.788;11.858;2023-04-06T01:28:26;-3.60;99.90
26990;DHT22;14537;47.788;11.858;2023-04-06T01:30:51;-3.60;99.90
26990;DHT22;14537;47.788;11.858;2023-04-06T01:33:17;-3.60;99.90
26990;DHT22;14537;47.788;11.858;2023-04-06T01:35:42;-3.50;99.90
26990;DHT22;14537;47.788;11.858;2023-04-06T01:38:08;-3.50;99.90
26990;DHT22;14537;47.788;11.858;2023-04-06T01:40:34;-3.50;99.90
26990;DHT22;14537;47.788;11.858;2023-04-06T01:42:59;-3.50;99.90
26990;DHT22;14537;47.788;11.858;2023-04-06T01:45:25;-3.50;99.90
26990;DHT22;14537;47.788;11.858;2023-04-06T01:47:51;-3.60;99.90
26990;DHT22;14537;47.788;11.858;2023-04-06T01:50:17;-3.60;99.90
26990;DHT22;14537;47.788;11.858;2023-04-06T01:52:42;-3.70;99.90
26990;DHT22;14537;47.788;11.858;2023-04-06T01:55:08;-3.80;99.90
26990;DHT22;14537;47.788;11.858;2023-04-06T01:57:33;-3.80;99.90
26990;DHT22;14537;47.788;11.858;2023-04-06T02:00:00;-3.70;99.90
26990;DHT22;14537;47.788;11.858;2023-04-06T02:02:25;-3.80;99.90
26990;DHT22;14537;47.788;11.858;2023-04-06T02:04:51;-3.70;99.90
26990;DHT22;14537;47.788;11.858;2023-04-06T02:07:16;-3.60;99.90
26990;DHT22;14537;47.788;11.858;2023-04-06T02:09:42;-3.50;99.90
26990;DHT22;14537;47.788;11.858;2023-04-06T02:12:08;-3.50;99.90
26990;DHT22;14537;47.788;11.858;2023-04-06T02:14:33;-3.60;99.90
26990;DHT22;14537;47.788;11.858;2023-04-06T02:16:59;-3.70;99.90
26990;DHT22;14537;47.788;11.858;2023-04-06T02:19:24;-3.90;99.90
26990;DHT22;14537;47.788;11.858;2023-04-06T02:21:50;-3.90;99.90
26990;DHT22;14537;47.788;11.858;2023-04-06T02:24:16;-3.80;99.90
26990;DHT22;14537;47.788;11.858;2023-04-06T02:26:41;-3.70;99.90
26990;DHT22;14537;47.788;11.858;2023-04-06T02:29:07;-3.70;99.90
26990;DHT22;14537;47.788;11.858;2023-04-06T02:31:33;-3.70;99.90
26990;DHT22;14537;47.788;11.858;2023-04-06T02:33:58;-3.70;99.90
26990;DHT22;14537;47.788;11.858;2023-04-06T02:36:24;-3.80;99.90
26990;DHT22;14537;47.788;11.858;2023-04-06T02:38:50;-3.80;99.90
26990;DHT22;14537;47.788;11.858;2023-04-06T02:41:15;-3.80;99.90
26990;DHT22;14537;47.788;11.858;2023-04-06T02:43:41;-3.80;99.90
26990;DHT22;14537;47.788;11.858;2023-04-06T02:46:06;-3.70;99.90
26990;DHT22;14537;47.788;11.858;2023-04-06T02:48:32;-3.80;99.90
26990;DHT22;14537;47.788;11.858;2023-04-06T02:51:01;-4.00;99.90
26990;DHT22;14537;47.788;11.858;2023-04-06T02:53:27;-4.00;99.90
26990;DHT22;14537;47.788;11.858;2023-04-06T02:55:53;-3.90;99.90
26990;DHT22;14537;47.788;11.858;2023-04-06T02:58:18;-3.90;99.90
26990;DHT22;14537;47.788;11.858;2023-04-06T03:00:44;-3.90;99.90
26990;DHT22;14537;47.788;11.858;2023-04-06T03:03:09;-3.90;99.90
26990;DHT22;14537;47.788;11.858;2023-04-06T03:05:35;-3.90;99.90
26990;DHT22;14537;47.788;11.858;2023-04-06T03:08:01;-3.90;99.90
26990;DHT22;14537;47.788;11.858;2023-04-06T03:10:26;-3.80;99.90
26990;DHT22;14537;47.788;11.858;2023-04-06T03:12:52;-3.80;99.90
26990;DHT22;14537;47.788;11.858;2023-04-06T03:15:18;-3.90;99.90
26990;DHT22;14537;47.788;11.858;2023-04-06T03:17:43;-4.00;99.90
26990;DHT22;14537;47.788;11.858;2023-04-06T03:20:09;-4.00;99.90
26990;DHT22;14537;47.788;11.858;2023-04-06T03:22:35;-4.00;99.90
26990;DHT22;14537;47.788;11.858;2023-04-06T03:25:00;-4.10;99.90
26990;DHT22;14537;47.788;11.858;2023-04-06T03:27:26;-4.20;99.90
26990;DHT22;14537;47.788;11.858;2023-04-06T03:29:51;-4.10;99.90
26990;DHT22;14537;47.788;11.858;2023-04-06T03:32:17;-4.10;99.90
26990;DHT22;14537;47.788;11.858;2023-04-06T03:34:43;-4.20;99.90
26990;DHT22;14537;47.788;11.858;2023-04-06T03:37:08;-4.10;99.90
26990;DHT22;14537;47.788;11.858;2023-04-06T03:39:34;-4.20;99.90
26990;DHT22;14537;47.788;11.858;2023-04-06T03:41:59;-4.10;99.90
26990;DHT22;14537;47.788;11.858;2023-04-06T03:44:25;-4.20;99.90
26990;DHT22;14537;47.788;11.858;2023-04-06T03:46:51;-4.20;99.90
26990;DHT22;14537;47.788;11.858;2023-04-06T03:49:16;-4.10;99.90
26990;DHT22;14537;47.788;11.858;2023-04-06T03:51:42;-4.00;99.90
26990;DHT22;14537;47.788;11.858;2023-04-06T03:54:08;-4.00;99.90
26990;DHT22;14537;47.788;11.858;2023-04-06T03:56:33;-4.00;99.90
26990;DHT22;14537;47.788;11.858;2023-04-06T03:58:59;-4.10;99.90
26990;DHT22;14537;47.788;11.858;2023-04-06T04:01:24;-4.20;99.90
26990;DHT22;14537;47.788;11.858;2023-04-06T04:03:50;-4.30;99.90
26990;DHT22;14537;47.788;11.858;2023-04-06T04:06:16;-4.30;99.90
26990;DHT22;14537;47.788;11.858;2023-04-06T04:08:42;-4.30;99.90
26990;DHT22;14537;47.788;11.858;2023-04-06T04:11:08;-4.30;99.90
26990;DHT22;14537;47.788;11.858;2023-04-06T04:13:33;-4.40;99.90
26990;DHT22;14537;47.788;11.858;2023-04-06T04:15:59;-4.30;99.90
26990;DHT22;14537;47.788;11.858;2023-04-06T04:18:25;-4.20;99.90
26990;DHT22;14537;47.788;11.858;2023-04-06T04:20:50;-4.30;99.90
26990;DHT22;14537;47.788;11.858;2023-04-06T04:23:16;-4.30;99.90
26990;DHT22;14537;47.788;11.858;2023-04-06T04:25:43;-4.30;99.90
26990;DHT22;14537;47.788;11.858;2023-04-06T04:28:09;-4.20;99.90
26990;DHT22;14537;47.788;11.858;2023-04-06T04:30:34;-4.10;99.90
26990;DHT22;14537;47.788;11.858;2023-04-06T04:33:00;-4.10;99.90
26990;DHT22;14537;47.788;11.858;2023-04-06T04:35:26;-4.10;99.90
26990;DHT22;14537;47.788;11.858;2023-04-06T04:37:52;-4.00;99.90
26990;DHT22;14537;47.788;11.858;2023-04-06T04:40:17;-4.00;99.90
26990;DHT22;14537;47.788;11.858;2023-04-06T04:42:43;-4.10;99.90
26990;DHT22;14537;47.788;11.858;2023-04-06T04:45:09;-4.10;99.90
26990;DHT22;14537;47.788;11.858;2023-04-06T04:47:35;-4.00;99.90
26990;DHT22;14537;47.788;11.858;2023-04-06T04:50:00;-4.00;99.90
26990;DHT22;14537;47.788;11.858;2023-04-06T04:52:26;-4.00;99.90
26990;DHT22;14537;47.788;11.858;2023-04-06T04:54:51;-3.90;99.90
26990;DHT22;14537;47.788;11.858;2023-04-06T04:57:17;-3.80;99.90
26990;DHT22;14537;47.788;11.858;2023-04-06T04:59:43;-3.70;99.90
26990;DHT22;14537;47.788;11.858;2023-04-06T05:02:08;-3.60;99.90
26990;DHT22;14537;47.788;11.858;2023-04-06T05:04:35;-3.50;99.90
26990;DHT22;14537;47.788;11.858;2023-04-06T05:07:07;-3.50;99.90
26990;DHT22;14537;47.788;11.858;2023-04-06T05:09:33;-3.40;99.90
26990;DHT22;14537;47.788;11.858;2023-04-06T05:11:59;-3.30;99.90
26990;DHT22;14537;47.788;11.858;2023-04-06T05:14:26;-3.20;99.90
26990;DHT22;14537;47.788;11.858;2023-04-06T05:16:52;-3.20;99.90
26990;DHT22;14537;47.788;11.858;2023-04-06T05:19:18;-3.10;99.90
26990;DHT22;14537;47.788;11.858;2023-04-06T05:21:44;-3.00;99.90
26990;DHT22;14537;47.788;11.858;2023-04-06T05:24:10;-2.90;99.90
26990;DHT22;14537;47.788;11.858;2023-04-06T05:26:36;-2.80;99.90
26990;DHT22;14537;47.788;11.858;2023-04-06T05:29:01;-2.80;99.90
26990;DHT22;14537;47.788;11.858;2023-04-06T05:31:27;-2.70;99.90
26990;DHT22;14537;47.788;11.858;2023-04-06T05:33:53;-2.70;99.90
26990;DHT22;14537;47.788;11.858;2023-04-06T05:36:18;-2.60;99.90
26990;DHT22;14537;47.788;11.858;2023-04-06T05:38:44;-2.60;99.90
26990;DHT22;14537;47.788;11.858;2023-04-06T05:41:10;-2.60;99.90
26990;DHT22;14537;47.788;11.858;2023-04-06T05:43:36;-2.50;99.90
26990;DHT22;14537;47.788;11.858;2023-04-06T05:46:02;-2.40;99.90
26990;DHT22;14537;47.788;11.858;2023-04-06T05:48:28;-2.30;99.90
26990;DHT22;14537;47.788;11.858;2023-04-06T05:50:54;-2.20;99.90
26990;DHT22;14537;47.788;11.858;2023-04-06T05:53:20;-2.20;99.90
26990;DHT22;14537;47.788;11.858;2023-04-06T05:55:46;-2.10;99.90
26990;DHT22;14537;47.788;11.858;2023-04-06T05:58:12;-2.10;99.90
26990;DHT22;14537;47.788;11.858;2023-04-06T06:00:38;-2.00;99.90
26990;DHT22;14537;47.788;11.858;2023-04-06T06:03:03;-2.00;99.90
26990;DHT22;14537;47.788;11.858;2023-04-06T06:05:31;-1.90;99.90
26990;DHT22;14537;47.788;11.858;2023-04-06T06:07:56;-1.80;99.90
26990;DHT22;14537;47.788;11.858;2023-04-06T06:10:22;-1.70;99.90
26990;DHT22;14537;47.788;11.858;2023-04-06T06:12:48;-1.60;99.90
26990;DHT22;14537;47.788;11.858;2023-04-06T06:15:13;-1.50;99.90
26990;DHT22;14537;47.788;11.858;2023-04-06T06:17:39;-1.40;99.90
26990;DHT22;14537;47.788;11.858;2023-04-06T06:20:08;-1.40;99.90
26990;DHT22;14537;47.788;11.858;2023-04-06T06:22:33;-1.30;99.90
26990;DHT22;14537;47.788;11.858;2023-04-06T06:24:59;-1.30;99.90
26990;DHT22;14537;47.788;11.858;2023-04-06T06:27:25;-1.20;99.90
26990;DHT22;14537;47.788;11.858;2023-04-06T06:29:50;-1.10;99.90
26990;DHT22;14537;47.788;11.858;2023-04-06T06:32:16;-1.00;99.90
26990;DHT22;14537;47.788;11.858;2023-04-06T06:34:41;-0.90;99.90
26990;DHT22;14537;47.788;11.858;2023-04-06T06:37:07;-0.80;99.90
26990;DHT22;14537;47.788;11.858;2023-04-06T06:39:32;-0.80;99.90
26990;DHT22;14537;47.788;11.858;2023-04-06T06:41:58;-0.70;99.90
26990;DHT22;14537;47.788;11.858;2023-04-06T06:44:26;-0.60;99.90
26990;DHT22;14537;47.788;11.858;2023-04-06T06:46:52;-0.60;99.90
26990;DHT22;14537;47.788;11.858;2023-04-06T06:49:18;-0.50;99.90
26990;DHT22;14537;47.788;11.858;2023-04-06T06:51:44;-0.50;99.90
26990;DHT22;14537;47.788;11.858;2023-04-06T06:54:11;-0.50;99.90
26990;DHT22;14537;47.788;11.858;2023-04-06T06:56:36;-0.40;99.90
26990;DHT22;14537;47.788;11.858;2023-04-06T06:59:03;-0.40;99.90
26990;DHT22;14537;47.788;11.858;2023-04-06T07:01:29;-0.30;99.90
26990;DHT22;14537;47.788;11.858;2023-04-06T07:03:55;-0.20;99.90
26990;DHT22;14537;47.788;11.858;2023-04-06T07:06:20;-0.10;99.90
26990;DHT22;14537;47.788;11.858;2023-04-06T07:08:46;-0.10;99.90
26990;DHT22;14537;47.788;11.858;2023-04-06T07:11:12;0.00;99.90
26990;DHT22;14537;47.788;11.858;2023-04-06T07:13:37;0.00;99.90
26990;DHT22;14537;47.788;11.858;2023-04-06T07:16:03;0.00;99.90
26990;DHT22;14537;47.788;11.858;2023-04-06T07:18:29;0.10;99.90
26990;DHT22;14537;47.788;11.858;2023-04-06T07:20:55;0.10;99.90
26990;DHT22;14537;47.788;11.858;2023-04-06T07:23:20;0.20;99.90
26990;DHT22;14537;47.788;11.858;2023-04-06T07:25:46;0.20;99.90
26990;DHT22;14537;47.788;11.858;2023-04-06T07:28:11;0.30;99.90
26990;DHT22;14537;47.788;11.858;2023-04-06T07:30:38;0.50;99.90
26990;DHT22;14537;47.788;11.858;2023-04-06T07:33:05;0.50;99.90
26990;DHT22;14537;47.788;11.858;2023-04-06T07:35:31;0.60;99.90
26990;DHT22;14537;47.788;11.858;2023-04-06T07:37:56;0.60;99.90
26990;DHT22;14537;47.788;11.858;2023-04-06T07:40:22;0.70;99.90
26990;DHT22;14537;47.788;11.858;2023-04-06T07:42:48;0.80;99.90
26990;DHT22;14537;47.788;11.858;2023-04-06T07:45:14;0.90;99.90
26990;DHT22;14537;47.788;11.858;2023-04-06T07:47:41;1.10;99.90
26990;DHT22;14537;47.788;11.858;2023-04-06T07:50:07;1.20;99.90
26990;DHT22;14537;47.788;11.858;2023-04-06T07:52:33;1.30;99.90
26990;DHT22;14537;47.788;11.858;2023-04-06T07:54:59;1.40;99.90
26990;DHT22;14537;47.788;11.858;2023-04-06T07:57:24;1.50;99.90
26990;DHT22;14537;47.788;11.858;2023-04-06T07:59:50;1.50;99.90
26990;DHT22;14537;47.788;11.858;2023-04-06T08:02:16;1.50;99.90
26990;DHT22;14537;47.788;11.858;2023-04-06T08:04:41;1.60;99.90
26990;DHT22;14537;47.788;11.858;2023-04-06T08:07:07;1.70;99.90
26990;DHT22;14537;47.788;11.858;2023-04-06T08:09:33;1.80;99.90
26990;DHT22;14537;47.788;11.858;2023-04-06T08:11:58;1.80;99.90
26990;DHT22;14537;47.788;11.858;2023-04-06T08:14:24;1.90;99.90
26990;DHT22;14537;47.788;11.858;2023-04-06T08:16:50;1.90;99.90
26990;DHT22;14537;47.788;11.858;2023-04-06T08:19:15;2.20;99.90
26990;DHT22;14537;47.788;11.858;2023-04-06T08:21:43;2.20;99.90
26990;DHT22;14537;47.788;11.858;2023-04-06T08:24:08;2.30;99.90
26990;DHT22;14537;47.788;11.858;2023-04-06T08:26:34;2.40;99.90
26990;DHT22;14537;47.788;11.858;2023-04-06T08:29:00;2.50;99.90
26990;DHT22;14537;47.788;11.858;2023-04-06T08:31:26;2.50;99.90
26990;DHT22;14537;47.788;11.858;2023-04-06T08:33:51;2.50;99.90
26990;DHT22;14537;47.788;11.858;2023-04-06T08:36:17;2.40;99.90
26990;DHT22;14537;47.788;11.858;2023-04-06T08:38:48;2.50;99.90
26990;DHT22;14537;47.788;11.858;2023-04-06T08:41:14;2.90;99.90
26990;DHT22;14537;47.788;11.858;2023-04-06T08:43:46;3.40;99.90
26990;DHT22;14537;47.788;11.858;2023-04-06T08:46:13;3.60;99.20
26990;DHT22;14537;47.788;11.858;2023-04-06T08:48:40;3.70;96.90
26990;DHT22;14537;47.788;11.858;2023-04-06T08:51:06;3.70;96.70
26990;DHT22;14537;47.788;11.858;2023-04-06T08:53:32;3.70;97.90
26990;DHT22;14537;47.788;11.858;2023-04-06T08:55:58;3.90;96.50
26990;DHT22;14537;47.788;11.858;2023-04-06T08:58:25;4.00;96.40
26990;DHT22;14537;47.788;11.858;2023-04-06T09:00:53;4.00;95.90
26990;DHT22;14537;47.788;11.858;2023-04-06T09:03:20;4.10;95.10
26990;DHT22;14537;47.788;11.858;2023-04-06T09:05:46;4.20;97.70
26990;DHT22;14537;47.788;11.858;2023-04-06T09:08:12;4.30;99.90
26990;DHT22;14537;47.788;11.858;2023-04-06T09:10:41;4.30;99.50
26990;DHT22;14537;47.788;11.858;2023-04-06T09:13:08;4.40;99.50
26990;DHT22;14537;47.788;11.858;2023-04-06T09:15:34;4.50;98.50
26990;DHT22;14537;47.788;11.858;2023-04-06T09:18:00;4.60;98.60
26990;DHT22;14537;47.788;11.858;2023-04-06T09:20:26;4.80;98.50
26990;DHT22;14537;47.788;11.858;2023-04-06T09:22:54;4.90;99.10
26990;DHT22;14537;47.788;11.858;2023-04-06T09:25:22;5.00;98.00
26990;DHT22;14537;47.788;11.858;2023-04-06T09:28:03;5.00;94.60
26990;DHT22;14537;47.788;11.858;2023-04-06T09:30:29;5.00;95.90
26990;DHT22;14537;47.788;11.858;2023-04-06T09:32:57;5.10;97.00
26990;DHT22;14537;47.788;11.858;2023-04-06T09:35:23;5.10;96.70
26990;DHT22;14537;47.788;11.858;2023-04-06T09:37:51;5.10;96.90
26990;DHT22;14537;47.788;11.858;2023-04-06T09:40:17;5.10;97.20
26990;DHT22;14537;47.788;11.858;2023-04-06T09:42:48;5.20;97.00
26990;DHT22;14537;47.788;11.858;2023-04-06T09:45:15;5.30;97.10
26990;DHT22;14537;47.788;11.858;2023-04-06T09:47:45;5.40;96.60
26990;DHT22;14537;47.788;11.858;2023-04-06T09:50:13;5.50;97.70
26990;DHT22;14537;47.788;11.858;2023-04-06T09:52:48;5.60;96.90
26990;DHT22;14537;47.788;11.858;2023-04-06T09:55:34;5.70;97.40
26990;DHT22;14537;47.788;11.858;2023-04-06T09:58:06;5.80;98.30
26990;DHT22;14537;47.788;11.858;2023-04-06T10:00:34;6.00;97.10
26990;DHT22;14537;47.788;11.858;2023-04-06T10:08:12;6.30;94.90
26990;DHT22;14537;47.788;11.858;2023-04-06T10:10:38;6.30;93.90
26990;DHT22;14537;47.788;11.858;2023-04-06T10:13:04;6.20;93.60
26990;DHT22;14537;47.788;11.858;2023-04-06T10:15:31;6.40;94.30
26990;DHT22;14537;47.788;11.858;2023-04-06T10:18:00;6.60;94.60
26990;DHT22;14537;47.788;11.858;2023-04-06T10:20:43;6.70;94.00
26990;DHT22;14537;47.788;11.858;2023-04-06T10:25:58;6.80;90.40
26990;DHT22;14537;47.788;11.858;2023-04-06T10:28:25;6.80;87.50
26990;DHT22;14537;47.788;11.858;2023-04-06T10:30:57;6.50;83.80
26990;DHT22;14537;47.788;11.858;2023-04-06T10:33:23;6.40;86.30
26990;DHT22;14537;47.788;11.858;2023-04-06T10:35:49;6.30;83.30
26990;DHT22;14537;47.788;11.858;2023-04-06T10:38:15;6.40;86.10
26990;DHT22;14537;47.788;11.858;2023-04-06T10:40:45;6.40;79.70
26990;DHT22;14537;47.788;11.858;2023-04-06T10:43:21;6.50;85.90
26990;DHT22;14537;47.788;11.858;2023-04-06T10:45:57;6.70;84.30
26990;DHT22;14537;47.788;11.858;2023-04-06T10:48:24;6.70;85.30
26990;DHT22;14537;47.788;11.858;2023-04-06T10:50:55;6.90;82.70
26990;DHT22;14537;47.788;11.858;2023-04-06T10:53:27;6.80;79.40
26990;DHT22;14537;47.788;11.858;2023-04-06T10:55:55;6.90;80.90
26990;DHT22;14537;47.788;11.858;2023-04-06T10:58:24;6.90;80.80
26990;DHT22;14537;47.788;11.858;2023-04-06T11:00:51;6.80;76.10
26990;DHT22;14537;47.788;11.858;2023-04-06T11:03:17;6.80;78.50
26990;DHT22;14537;47.788;11.858;2023-04-06T11:05:47;6.90;79.20
26990;DHT22;14537;47.788;11.858;2023-04-06T11:08:42;6.90;78.60
26990;DHT22;14537;47.788;11.858;2023-04-06T11:11:10;6.90;78.50
26990;DHT22;14537;47.788;11.858;2023-04-06T11:16:26;6.80;77.60
26990;DHT22;14537;47.788;11.858;2023-04-06T11:18:52;7.00;78.50
26990;DHT22;14537;47.788;11.858;2023-04-06T11:21:20;7.40;79.10
26990;DHT22;14537;47.788;11.858;2023-04-06T11:23:45;7.50;76.50
26990;DHT22;14537;47.788;11.858;2023-04-06T11:26:14;7.50;75.50
26990;DHT22;14537;47.788;11.858;2023-04-06T11:28:41;7.60;74.40
26990;DHT22;14537;47.788;11.858;2023-04-06T11:31:09;7.70;70.10
26990;DHT22;14537;47.788;11.858;2023-04-06T11:33:37;7.60;67.00
26990;DHT22;14537;47.788;11.858;2023-04-06T11:36:03;7.40;65.80
26990;DHT22;14537;47.788;11.858;2023-04-06T11:38:29;7.40;67.30
26990;DHT22;14537;47.788;11.858;2023-04-06T11:40:55;7.40;67.30
26990;DHT22;14537;47.788;11.858;2023-04-06T11:43:30;7.50;69.80
26990;DHT22;14537;47.788;11.858;2023-04-06T11:46:03;7.40;67.10
26990;DHT22;14537;47.788;11.858;2023-04-06T11:48:29;7.20;69.80
26990;DHT22;14537;47.788;11.858;2023-04-06T11:50:56;7.30;69.60
26990;DHT22;14537;47.788;11.858;2023-04-06T11:53:23;7.30;69.70
26990;DHT22;14537;47.788;11.858;2023-04-06T11:55:48;7.40;71.30
26990;DHT22;14537;47.788;11.858;2023-04-06T11:58:14;7.40;70.70
26990;DHT22;14537;47.788;11.858;2023-04-06T12:00:40;7.30;68.90
26990;DHT22;14537;47.788;11.858;2023-04-06T12:03:11;7.40;70.40
26990;DHT22;14537;47.788;11.858;2023-04-06T12:05:37;7.50;69.80
26990;DHT22;14537;47.788;11.858;2023-04-06T12:08:03;7.80;68.10
26990;DHT22;14537;47.788;11.858;2023-04-06T12:10:28;7.70;69.00
26990;DHT22;14537;47.788;11.858;2023-04-06T12:12:54;7.70;69.40
26990;DHT22;14537;47.788;11.858;2023-04-06T12:15:19;7.80;69.40
26990;DHT22;14537;47.788;11.858;2023-04-06T12:17:45;7.80;68.00
26990;DHT22;14537;47.788;11.858;2023-04-06T12:20:11;7.70;66.40
26990;DHT22;14537;47.788;11.858;2023-04-06T12:22:38;7.70;66.10
26990;DHT22;14537;47.788;11.858;2023-04-06T12:25:04;7.70;68.10
26990;DHT22;14537;47.788;11.858;2023-04-06T12:27:29;7.90;68.50
26990;DHT22;14537;47.788;11.858;2023-04-06T12:29:55;8.00;66.60
26990;DHT22;14537;47.788;11.858;2023-04-06T12:32:21;8.20;66.00
26990;DHT22;14537;47.788;11.858;2023-04-06T12:34:47;8.20;66.50
26990;DHT22;14537;47.788;11.858;2023-04-06T12:37:12;8.40;71.50
26990;DHT22;14537;47.788;11.858;2023-04-06T12:39:38;8.70;67.80
26990;DHT22;14537;47.788;11.858;2023-04-06T12:42:03;8.90;63.70
26990;DHT22;14537;47.788;11.858;2023-04-06T12:44:29;8.80;63.20
26990;DHT22;14537;47.788;11.858;2023-04-06T12:46:55;8.40;64.10
26990;DHT22;14537;47.788;11.858;2023-04-06T12:49:21;8.30;64.30
26990;DHT22;14537;47.788;11.858;2023-04-06T12:51:47;8.50;64.70
26990;DHT22;14537;47.788;11.858;2023-04-06T12:54:13;8.90;66.90
26990;DHT22;14537;47.788;11.858;2023-04-06T12:56:38;9.40;65.90
26990;DHT22;14537;47.788;11.858;2023-04-06T12:59:04;9.60;64.80
26990;DHT22;14537;47.788;11.858;2023-04-06T13:01:30;9.60;63.80
26990;DHT22;14537;47.788;11.858;2023-04-06T13:03:56;9.40;59.80
26990;DHT22;14537;47.788;11.858;2023-04-06T13:06:23;9.50;61.10
26990;DHT22;14537;47.788;11.858;2023-04-06T13:08:52;9.60;60.80
26990;DHT22;14537;47.788;11.858;2023-04-06T13:11:18;9.10;60.50
26990;DHT22;14537;47.788;11.858;2023-04-06T13:13:46;9.20;59.30
26990;DHT22;14537;47.788;11.858;2023-04-06T13:16:11;8.70;57.20
26990;DHT22;14537;47.788;11.858;2023-04-06T13:18:37;8.70;59.90
26990;DHT22;14537;47.788;11.858;2023-04-06T13:21:04;8.80;59.50
26990;DHT22;14537;47.788;11.858;2023-04-06T13:23:31;8.90;61.80
26990;DHT22;14537;47.788;11.858;2023-04-06T13:26:00;9.10;62.40
26990;DHT22;14537;47.788;11.858;2023-04-06T13:28:26;9.30;59.80
26990;DHT22;14537;47.788;11.858;2023-04-06T13:30:53;9.10;60.00
26990;DHT22;14537;47.788;11.858;2023-04-06T13:33:18;9.10;58.20
26990;DHT22;14537;47.788;11.858;2023-04-06T13:35:45;9.20;58.70
26990;DHT22;14537;47.788;11.858;2023-04-06T13:38:22;9.30;59.20
26990;DHT22;14537;47.788;11.858;2023-04-06T13:40:49;9.60;57.50
26990;DHT22;14537;47.788;11.858;2023-04-06T13:43:15;9.80;58.50
26990;DHT22;14537;47.788;11.858;2023-04-06T13:45:51;10.20;60.00
26990;DHT22;14537;47.788;11.858;2023-04-06T13:48:19;10.50;58.60
26990;DHT22;14537;47.788;11.858;2023-04-06T13:50:45;10.20;57.60
26990;DHT22;14537;47.788;11.858;2023-04-06T13:53:11;10.00;58.70
26990;DHT22;14537;47.788;11.858;2023-04-06T13:55:37;10.20;58.10
26990;DHT22;14537;47.788;11.858;2023-04-06T13:58:02;10.50;57.50
26990;DHT22;14537;47.788;11.858;2023-04-06T14:00:28;10.70;58.60
26990;DHT22;14537;47.788;11.858;2023-04-06T14:02:54;10.80;58.20
26990;DHT22;14537;47.788;11.858;2023-04-06T14:05:21;10.30;55.90
26990;DHT22;14537;47.788;11.858;2023-04-06T14:07:47;10.30;56.00
26990;DHT22;14537;47.788;11.858;2023-04-06T14:10:12;10.40;58.50
26990;DHT22;14537;47.788;11.858;2023-04-06T14:12:44;10.30;57.70
26990;DHT22;14537;47.788;11.858;2023-04-06T14:15:11;10.60;57.80
26990;DHT22;14537;47.788;11.858;2023-04-06T14:17:37;10.40;56.40
26990;DHT22;14537;47.788;11.858;2023-04-06T14:20:05;10.00;55.80
26990;DHT22;14537;47.788;11.858;2023-04-06T14:22:31;9.70;57.30
26990;DHT22;14537;47.788;11.858;2023-04-06T14:24:57;9.70;60.60
26990;DHT22;14537;47.788;11.858;2023-04-06T14:27:23;10.10;57.20
26990;DHT22;14537;47.788;11.858;2023-04-06T14:29:49;10.10;56.80
26990;DHT22;14537;47.788;11.858;2023-04-06T14:32:15;9.90;57.50
26990;DHT22;14537;47.788;11.858;2023-04-06T14:34:40;9.70;57.00
26990;DHT22;14537;47.788;11.858;2023-04-06T14:37:06;9.50;55.90
26990;DHT22;14537;47.788;11.858;2023-04-06T14:39:31;9.30;58.00
26990;DHT22;14537;47.788;11.858;2023-04-06T14:41:57;9.30;60.30
26990;DHT22;14537;47.788;11.858;2023-04-06T14:44:22;9.50;60.00
26990;DHT22;14537;47.788;11.858;2023-04-06T14:46:48;9.40;57.50
26990;DHT22;14537;47.788;11.858;2023-04-06T14:49:14;9.50;58.00
26990;DHT22;14537;47.788;11.858;2023-04-06T14:51:39;9.20;58.80
26990;DHT22;14537;47.788;11.858;2023-04-06T14:54:05;9.30;58.40
26990;DHT22;14537;47.788;11.858;2023-04-06T14:56:31;9.80;60.20
26990;DHT22;14537;47.788;11.858;2023-04-06T14:59:00;11.30;60.50
26990;DHT22;14537;47.788;11.858;2023-04-06T15:01:33;13.00;54.80
26990;DHT22;14537;47.788;11.858;2023-04-06T15:03:58;13.90;53.40
26990;DHT22;14537;47.788;11.858;2023-04-06T15:06:24;13.30;50.20
26990;DHT22;14537;47.788;11.858;2023-04-06T15:08:50;12.90;50.90
26990;DHT22;14537;47.788;11.858;2023-04-06T15:11:16;12.70;52.70
26990;DHT22;14537;47.788;11.858;2023-04-06T15:13:42;12.90;51.00
26990;DHT22;14537;47.788;11.858;2023-04-06T15:16:08;13.40;51.00
26990;DHT22;14537;47.788;11.858;2023-04-06T15:18:34;13.70;49.10
26990;DHT22;14537;47.788;11.858;2023-04-06T15:21:00;14.80;48.30
26990;DHT22;14537;47.788;11.858;2023-04-06T15:23:27;15.40;46.00
26990;DHT22;14537;47.788;11.858;2023-04-06T15:25:55;13.20;47.00
26990;DHT22;14537;47.788;11.858;2023-04-06T15:28:21;11.80;49.80